createdAt,value
2022-10-13T00:00:54.510Z,60.06
2022-10-13T00:01:56.752Z,59.98
2022-10-13T00:03:02.479Z,59.99
2022-10-13T00:04:04.744Z,59.83
2022-10-13T00:05:08.284Z,60.01
2022-10-13T00:06:11.684Z,60.07
2022-10-13T00:07:13.877Z,60.17
2022-10-13T00:08:19.483Z,60.15
2022-10-13T00:09:21.664Z,60.16
2022-10-13T00:10:25.474Z,60.20
2022-10-13T00:11:30.352Z,60.25
2022-10-13T00:12:35.406Z,60.29
2022-10-13T00:13:40.630Z,60.13
2022-10-13T00:14:42.806Z,60.37
2022-10-13T00:15:46.889Z,60.40
2022-10-13T00:16:49.064Z,60.34
2022-10-13T00:17:51.352Z,60.44
2022-10-13T00:18:53.742Z,60.37
2022-10-13T00:19:55.941Z,60.38
2022-10-13T00:21:01.409Z,60.32
2022-10-13T00:22:03.672Z,60.24
2022-10-13T00:23:07.027Z,60.28
2022-10-13T00:24:12.458Z,60.54
2022-10-13T00:25:14.663Z,60.22
2022-10-13T00:26:18.005Z,60.34
2022-10-13T00:27:20.728Z,60.27
2022-10-13T00:28:23.017Z,60.39
2022-10-13T00:29:25.380Z,60.36
2022-10-13T00:30:27.628Z,60.41
2022-10-13T00:31:31.960Z,60.50
2022-10-13T00:32:36.760Z,60.44
2022-10-13T00:33:40.361Z,60.66
2022-10-13T00:34:43.044Z,60.45
2022-10-13T00:35:47.877Z,60.51
2022-10-13T00:36:50.049Z,60.46
2022-10-13T00:37:53.814Z,60.64
2022-10-13T00:38:57.229Z,60.65
2022-10-13T00:39:59.863Z,60.77
2022-10-13T00:41:02.097Z,60.72
2022-10-13T00:42:06.679Z,60.69
2022-10-13T00:43:20.948Z,60.77
2022-10-13T00:45:00.978Z,60.52
2022-10-13T00:46:03.190Z,60.63
2022-10-13T00:47:05.492Z,60.70
2022-10-13T00:48:08.289Z,60.73
2022-10-13T00:49:14.554Z,60.97
2022-10-13T00:50:28.355Z,61.03
2022-10-13T00:51:35.232Z,60.88
2022-10-13T00:52:40.198Z,60.89
2022-10-13T00:53:44.044Z,60.80
2022-10-13T00:54:49.498Z,60.88
2022-10-13T00:55:53.592Z,60.93
2022-10-13T00:56:56.210Z,61.23
2022-10-13T00:58:05.128Z,61.27
2022-10-13T00:59:19.207Z,61.31
2022-10-13T01:00:24.971Z,61.24
2022-10-13T01:01:27.163Z,61.20
2022-10-13T01:02:33.304Z,61.51
2022-10-13T01:03:38.722Z,61.40
2022-10-13T01:04:44.422Z,61.48
2022-10-13T01:05:48.698Z,61.33
2022-10-13T01:06:52.346Z,61.21
2022-10-13T01:07:59.736Z,61.33
2022-10-13T01:09:02.025Z,61.46
2022-10-13T01:10:04.817Z,61.42
2022-10-13T01:11:25.433Z,61.45
2022-10-13T01:12:48.185Z,61.55
2022-10-13T01:14:03.675Z,61.52
2022-10-13T01:15:14.255Z,61.73
2022-10-13T01:16:22.311Z,61.73
2022-10-13T01:17:45.125Z,61.72
2022-10-13T01:19:26.613Z,61.63
2022-10-13T01:20:48.345Z,61.66
2022-10-13T01:22:14.175Z,61.79
2022-10-13T01:23:19.254Z,61.94
2022-10-13T01:24:36.360Z,61.96
2022-10-13T01:25:53.783Z,61.82
2022-10-13T01:27:12.762Z,62.03
2022-10-13T01:28:45.960Z,61.89
2022-10-13T01:30:21.895Z,61.97
2022-10-13T01:31:52.183Z,62.01
2022-10-13T01:33:00.286Z,61.88
2022-10-13T01:34:09.959Z,62.05
2022-10-13T01:35:33.796Z,62.15
2022-10-13T01:36:54.888Z,62.10
2022-10-13T01:38:19.019Z,62.06
2022-10-13T01:39:34.227Z,62.03
2022-10-13T01:40:50.101Z,61.97
2022-10-13T01:41:57.247Z,62.02
2022-10-13T01:43:12.065Z,61.98
2022-10-13T01:44:37.692Z,61.93
2022-10-13T01:45:49.621Z,62.00
2022-10-13T01:46:53.375Z,62.03
2022-10-13T01:47:58.254Z,62.07
2022-10-13T01:49:04.707Z,62.00
2022-10-13T01:50:08.049Z,62.11
2022-10-13T01:51:19.877Z,62.17
2022-10-13T01:52:26.524Z,62.11
2022-10-13T01:53:30.072Z,62.13
2022-10-13T01:54:33.043Z,62.13
2022-10-13T01:55:35.941Z,62.29
2022-10-13T01:56:38.368Z,62.11
2022-10-13T01:57:42.718Z,62.04
2022-10-13T01:58:45.711Z,62.22
2022-10-13T01:59:47.918Z,62.29
2022-10-13T02:01:13.268Z,62.02
2022-10-13T02:02:33.084Z,62.18
2022-10-13T02:04:00.006Z,62.30
2022-10-13T02:05:23.400Z,62.09
2022-10-13T02:06:36.230Z,62.08
2022-10-13T02:07:46.977Z,62.17
2022-10-13T02:09:08.393Z,62.16
2022-10-13T02:10:37.524Z,62.12
2022-10-13T02:11:49.484Z,62.22
2022-10-13T02:13:01.547Z,62.22
2022-10-13T02:14:16.541Z,62.16
2022-10-13T02:15:24.498Z,62.29
2022-10-13T02:16:31.415Z,62.02
2022-10-13T02:17:36.980Z,61.98
2022-10-13T02:18:39.330Z,62.18
2022-10-13T02:19:41.766Z,62.24
2022-10-13T02:20:46.100Z,62.24
2022-10-13T02:21:48.842Z,62.22
2022-10-13T02:22:57.996Z,62.26
2022-10-13T02:24:00.187Z,62.29
2022-10-13T02:25:02.468Z,62.15
2022-10-13T02:26:05.427Z,62.25
2022-10-13T02:27:09.595Z,62.23
2022-10-13T02:28:14.346Z,62.20
2022-10-13T02:29:19.936Z,62.25
2022-10-13T02:30:25.203Z,62.29
2022-10-13T02:31:27.439Z,62.28
2022-10-13T02:32:29.763Z,62.23
2022-10-13T02:33:32.196Z,62.20
2022-10-13T02:34:34.397Z,62.32
2022-10-13T02:35:36.623Z,62.23
2022-10-13T02:36:40.182Z,62.19
2022-10-13T02:37:42.473Z,62.12
2022-10-13T02:38:45.223Z,62.17
2022-10-13T02:39:47.516Z,62.20
2022-10-13T02:40:52.641Z,62.18
2022-10-13T02:41:56.703Z,62.18
2022-10-13T02:42:58.889Z,61.98
2022-10-13T02:44:01.140Z,62.12
2022-10-13T02:45:10.478Z,62.03
2022-10-13T02:46:14.959Z,62.18
2022-10-13T02:47:18.067Z,62.09
2022-10-13T02:48:20.277Z,61.99
2022-10-13T02:49:22.494Z,62.03
2022-10-13T02:50:24.799Z,62.05
2022-10-13T02:51:27.156Z,61.92
2022-10-13T02:52:31.657Z,62.01
2022-10-13T02:53:33.892Z,61.98
2022-10-13T02:54:36.108Z,62.08
2022-10-13T02:55:38.306Z,62.00
2022-10-13T02:56:40.479Z,61.83
2022-10-13T02:57:42.697Z,62.03
2022-10-13T02:58:45.008Z,62.01
2022-10-13T02:59:47.245Z,62.07
2022-10-13T03:00:49.569Z,61.78
2022-10-13T03:01:51.926Z,61.92
2022-10-13T03:02:54.348Z,61.89
2022-10-13T03:03:56.620Z,61.90
2022-10-13T03:04:58.828Z,61.97
2022-10-13T03:06:04.072Z,61.85
2022-10-13T03:07:06.260Z,61.86
2022-10-13T03:08:08.534Z,61.78
2022-10-13T03:09:11.489Z,61.89
2022-10-13T03:10:14.073Z,61.86
2022-10-13T03:11:16.258Z,61.84
2022-10-13T03:12:18.908Z,61.95
2022-10-13T03:13:21.531Z,61.85
2022-10-13T03:14:23.713Z,61.95
2022-10-13T03:15:25.968Z,61.88
2022-10-13T03:16:31.038Z,61.85
2022-10-13T03:17:33.217Z,61.90
2022-10-13T03:18:35.512Z,61.92
2022-10-13T03:19:37.691Z,62.03
2022-10-13T03:20:40.216Z,61.90
2022-10-13T03:21:42.684Z,61.94
2022-10-13T03:22:49.445Z,61.94
2022-10-13T03:23:54.619Z,62.01
2022-10-13T03:24:58.080Z,61.94
2022-10-13T03:26:00.528Z,61.94
2022-10-13T03:27:02.784Z,62.03
2022-10-13T03:28:05.076Z,61.92
2022-10-13T03:29:07.351Z,62.00
2022-10-13T03:30:10.452Z,62.07
2022-10-13T03:31:14.376Z,62.02
2022-10-13T03:32:17.660Z,62.16
2022-10-13T03:33:20.327Z,62.06
2022-10-13T03:34:22.523Z,62.05
2022-10-13T03:35:24.864Z,61.90
2022-10-13T03:36:27.142Z,61.90
2022-10-13T03:37:30.796Z,62.09
2022-10-13T03:38:35.263Z,61.94
2022-10-13T03:39:38.136Z,62.17
2022-10-13T03:40:41.293Z,62.01
2022-10-13T03:41:43.546Z,62.10
2022-10-13T03:42:45.701Z,62.03
2022-10-13T03:43:48.171Z,62.09
2022-10-13T03:44:55.251Z,62.11
2022-10-13T03:46:00.281Z,62.01
2022-10-13T03:47:02.542Z,62.14
2022-10-13T03:48:07.128Z,62.10
2022-10-13T03:49:11.314Z,62.13
2022-10-13T03:50:13.613Z,62.25
2022-10-13T03:51:18.953Z,62.23
2022-10-13T03:52:23.479Z,62.15
2022-10-13T03:53:26.201Z,62.15
2022-10-13T03:54:28.368Z,62.26
2022-10-13T03:55:30.553Z,62.23
2022-10-13T03:56:32.911Z,62.33
2022-10-13T03:57:35.150Z,62.38
2022-10-13T03:58:37.379Z,62.31
2022-10-13T03:59:41.391Z,62.34
2022-10-13T04:00:43.881Z,62.28
2022-10-13T04:01:46.111Z,62.26
2022-10-13T04:02:49.433Z,62.39
2022-10-13T04:03:56.141Z,62.36
2022-10-13T04:04:58.387Z,62.31
2022-10-13T04:06:04.783Z,62.33
2022-10-13T04:07:07.656Z,62.38
2022-10-13T04:08:10.432Z,62.26
2022-10-13T04:09:13.164Z,62.29
2022-10-13T04:10:15.477Z,62.40
2022-10-13T04:11:19.270Z,62.41
2022-10-13T04:12:26.317Z,62.28
2022-10-13T04:13:28.821Z,62.30
2022-10-13T04:14:31.062Z,62.47
2022-10-13T04:15:40.479Z,62.42
2022-10-13T04:16:42.723Z,62.50
2022-10-13T04:17:44.939Z,62.37
2022-10-13T04:18:52.484Z,62.71
2022-10-13T04:19:54.733Z,62.50
2022-10-13T04:20:57.020Z,62.45
2022-10-13T04:21:59.307Z,62.49
2022-10-13T04:23:01.582Z,62.44
2022-10-13T04:24:06.766Z,62.50
2022-10-13T04:25:09.272Z,62.57
2022-10-13T04:26:22.339Z,62.67
2022-10-13T04:27:24.589Z,62.81
2022-10-13T04:28:26.882Z,62.72
2022-10-13T04:29:29.195Z,62.78
2022-10-13T04:30:33.739Z,62.72
2022-10-13T04:31:37.175Z,62.71
2022-10-13T04:32:39.347Z,62.80
2022-10-13T04:33:44.438Z,62.86
2022-10-13T04:34:48.989Z,62.68
2022-10-13T04:35:51.244Z,62.83
2022-10-13T04:36:53.444Z,62.79
2022-10-13T04:37:58.086Z,62.69
2022-10-13T04:39:00.349Z,62.90
2022-10-13T04:40:02.686Z,62.92
2022-10-13T04:41:06.711Z,63.10
2022-10-13T04:42:08.920Z,62.79
2022-10-13T04:43:13.488Z,62.88
2022-10-13T04:44:15.761Z,62.95
2022-10-13T04:45:18.433Z,62.90
2022-10-13T04:46:27.297Z,63.20
2022-10-13T04:47:36.810Z,63.02
2022-10-13T04:48:39.672Z,63.11
2022-10-13T04:49:41.989Z,63.09
2022-10-13T04:50:44.222Z,62.88
2022-10-13T04:51:46.513Z,63.10
2022-10-13T04:52:48.718Z,63.13
2022-10-13T04:54:01.257Z,63.12
2022-10-13T04:55:03.815Z,63.05
2022-10-13T04:56:11.438Z,63.24
2022-10-13T04:57:13.746Z,63.22
2022-10-13T04:58:16.015Z,63.12
2022-10-13T04:59:18.224Z,63.24
2022-10-13T05:00:20.624Z,63.31
2022-10-13T05:01:24.641Z,63.18
2022-10-13T05:02:29.417Z,63.15
2022-10-13T05:03:31.735Z,63.36
2022-10-13T05:04:34.002Z,63.30
2022-10-13T05:05:36.837Z,63.22
2022-10-13T05:07:05.476Z,63.38
2022-10-13T05:08:03.667Z,63.19
2022-10-13T05:09:05.970Z,63.34
2022-10-13T05:10:09.215Z,63.36
2022-10-13T05:11:11.789Z,63.33
2022-10-13T05:12:14.025Z,63.38
2022-10-13T05:13:16.234Z,63.43
2022-10-13T05:14:18.650Z,63.53
2022-10-13T05:15:20.841Z,63.58
2022-10-13T05:16:23.669Z,63.41
2022-10-13T05:17:25.914Z,63.49
2022-10-13T05:18:28.126Z,63.54
2022-10-13T05:19:31.409Z,63.41
2022-10-13T05:20:33.712Z,63.29
2022-10-13T05:21:35.896Z,63.43
2022-10-13T05:22:38.227Z,63.54
2022-10-13T05:23:40.816Z,63.40
2022-10-13T05:24:43.128Z,63.40
2022-10-13T05:25:45.385Z,63.54
2022-10-13T05:26:50.117Z,63.36
2022-10-13T05:27:52.329Z,63.52
2022-10-13T05:29:02.043Z,63.35
2022-10-13T05:30:07.077Z,63.41
2022-10-13T05:31:15.583Z,63.52
2022-10-13T05:32:18.140Z,63.34
2022-10-13T05:33:20.526Z,63.45
2022-10-13T05:34:22.705Z,63.33
2022-10-13T05:35:25.645Z,63.50
2022-10-13T05:36:31.053Z,63.26
2022-10-13T05:37:33.283Z,63.58
2022-10-13T05:38:35.557Z,63.55
2022-10-13T05:39:40.585Z,63.42
2022-10-13T05:40:42.784Z,63.37
2022-10-13T05:41:45.001Z,63.38
2022-10-13T05:42:55.673Z,63.38
2022-10-13T05:44:02.473Z,63.50
2022-10-13T05:45:05.244Z,63.41
2022-10-13T05:46:08.454Z,63.40
2022-10-13T05:47:14.403Z,63.43
2022-10-13T05:48:16.627Z,63.39
2022-10-13T05:49:18.914Z,63.32
2022-10-13T05:50:21.166Z,63.26
2022-10-13T05:51:32.425Z,63.31
2022-10-13T05:52:37.956Z,63.50
2022-10-13T05:53:51.041Z,63.27
2022-10-13T05:55:00.088Z,63.37
2022-10-13T05:56:08.679Z,63.28
2022-10-13T05:57:30.606Z,63.27
2022-10-13T05:58:36.547Z,63.45
2022-10-13T05:59:43.297Z,63.33
2022-10-13T06:00:45.775Z,63.17
2022-10-13T06:01:48.078Z,63.17
2022-10-13T06:02:56.492Z,63.26
2022-10-13T06:04:04.808Z,63.30
2022-10-13T06:05:14.841Z,63.29
2022-10-13T06:06:17.139Z,63.25
2022-10-13T06:07:19.961Z,63.34
2022-10-13T06:08:22.328Z,63.24
2022-10-13T06:09:34.876Z,63.36
2022-10-13T06:10:38.239Z,63.30
2022-10-13T06:11:40.938Z,63.51
2022-10-13T06:12:43.138Z,63.41
2022-10-13T06:13:45.304Z,63.25
2022-10-13T06:14:47.556Z,63.38
2022-10-13T06:15:50.441Z,63.25
2022-10-13T06:16:52.628Z,63.17
2022-10-13T06:17:55.753Z,63.12
2022-10-13T06:18:57.947Z,63.15
2022-10-13T06:20:00.511Z,63.20
2022-10-13T06:21:03.104Z,63.13
2022-10-13T06:22:05.302Z,63.12
2022-10-13T06:23:07.508Z,63.21
2022-10-13T06:24:10.480Z,63.21
2022-10-13T06:25:12.691Z,63.24
2022-10-13T06:26:14.940Z,63.24
2022-10-13T06:27:17.152Z,63.16
2022-10-13T06:28:20.771Z,63.17
2022-10-13T06:29:23.077Z,63.17
2022-10-13T06:30:28.449Z,63.33
2022-10-13T06:31:30.633Z,63.25
2022-10-13T06:32:32.887Z,63.05
2022-10-13T06:33:35.141Z,63.22
2022-10-13T06:34:37.352Z,63.25
2022-10-13T06:35:39.528Z,63.38
2022-10-13T06:36:43.602Z,63.29
2022-10-13T06:37:48.706Z,63.24
2022-10-13T06:38:51.313Z,63.16
2022-10-13T06:39:56.523Z,63.24
2022-10-13T06:41:02.792Z,63.37
2022-10-13T06:42:07.791Z,63.35
2022-10-13T06:43:13.401Z,63.52
2022-10-13T06:44:18.545Z,63.40
2022-10-13T06:45:20.724Z,63.51
2022-10-13T06:46:23.162Z,63.62
2022-10-13T06:47:25.635Z,63.73
2022-10-13T06:48:31.557Z,63.85
2022-10-13T06:49:34.052Z,63.83
2022-10-13T06:50:43.898Z,64.01
2022-10-13T06:51:46.167Z,63.93
2022-10-13T06:52:48.571Z,63.95
2022-10-13T06:53:50.855Z,63.87
2022-10-13T06:54:57.577Z,63.87
2022-10-13T06:56:03.825Z,63.72
2022-10-13T06:57:06.990Z,63.64
2022-10-13T06:58:11.122Z,63.65
2022-10-13T06:59:13.474Z,63.17
2022-10-13T07:00:15.855Z,62.88
2022-10-13T07:01:19.284Z,62.99
2022-10-13T07:02:22.030Z,62.79
2022-10-13T07:03:25.382Z,62.64
2022-10-13T07:04:28.337Z,62.57
2022-10-13T07:05:33.375Z,62.39
2022-10-13T07:06:38.464Z,62.24
2022-10-13T07:07:40.828Z,62.10
2022-10-13T07:08:43.153Z,61.96
2022-10-13T07:09:45.373Z,61.99
2022-10-13T07:10:47.758Z,61.67
2022-10-13T07:11:50.409Z,60.88
2022-10-13T07:12:52.620Z,60.70
2022-10-13T07:13:55.236Z,60.43
2022-10-13T07:14:57.487Z,60.40
2022-10-13T07:16:03.419Z,60.44
2022-10-13T07:17:05.818Z,60.14
2022-10-13T07:18:08.473Z,59.94
2022-10-13T07:19:10.741Z,59.52
2022-10-13T07:20:14.503Z,59.37
2022-10-13T07:21:16.869Z,58.81
2022-10-13T07:22:19.723Z,58.49
2022-10-13T07:23:21.914Z,58.23
2022-10-13T07:24:24.564Z,57.76
2022-10-13T07:25:26.922Z,57.71
2022-10-13T07:26:29.136Z,57.38
2022-10-13T07:27:31.375Z,57.40
2022-10-13T07:28:33.634Z,57.41
2022-10-13T07:29:36.225Z,57.26
2022-10-13T07:30:39.691Z,57.09
2022-10-13T07:31:44.735Z,57.17
2022-10-13T07:32:47.776Z,56.99
2022-10-13T07:33:51.256Z,56.88
2022-10-13T07:34:54.143Z,56.83
2022-10-13T07:35:59.317Z,56.67
2022-10-13T07:37:01.724Z,56.79
2022-10-13T07:38:04.977Z,56.77
2022-10-13T07:39:10.744Z,56.86
2022-10-13T07:40:13.106Z,56.84
2022-10-13T07:41:15.808Z,56.93
2022-10-13T07:42:18.192Z,56.89
2022-10-13T07:43:20.415Z,56.87
2022-10-13T07:44:22.980Z,56.71
2022-10-13T07:45:25.571Z,56.83
2022-10-13T07:46:30.427Z,56.52
2022-10-13T07:47:32.652Z,56.72
2022-10-13T07:48:35.466Z,56.80
2022-10-13T07:49:37.836Z,56.81
2022-10-13T07:50:40.329Z,56.97
2022-10-13T07:51:43.458Z,56.83
2022-10-13T07:52:46.110Z,56.82
2022-10-13T07:53:49.039Z,56.88
2022-10-13T07:54:51.642Z,56.76
2022-10-13T07:55:53.910Z,56.92
2022-10-13T07:56:56.538Z,56.73
2022-10-13T07:58:01.952Z,56.78
2022-10-13T07:59:09.359Z,56.77
2022-10-13T08:00:12.237Z,56.79
2022-10-13T08:01:17.531Z,56.74
2022-10-13T08:02:20.287Z,56.88
2022-10-13T08:03:25.807Z,56.83
2022-10-13T08:04:32.522Z,56.77
2022-10-13T08:05:39.437Z,56.82
2022-10-13T08:06:42.661Z,57.05
2022-10-13T08:07:44.918Z,56.74
2022-10-13T08:08:47.265Z,56.82
2022-10-13T08:09:51.755Z,56.72
2022-10-13T08:12:17.102Z,56.51
2022-10-13T08:13:19.418Z,56.69
2022-10-13T08:14:21.704Z,56.55
2022-10-13T08:15:23.979Z,56.73
2022-10-13T08:16:27.466Z,56.62
2022-10-13T08:17:29.708Z,57.01
2022-10-13T08:18:32.486Z,56.99
2022-10-13T08:19:34.961Z,57.01
2022-10-13T08:20:45.387Z,56.61
2022-10-13T08:22:07.852Z,56.56
2022-10-13T08:23:13.205Z,56.36
2022-10-13T08:24:23.942Z,56.09
2022-10-13T08:25:26.305Z,55.88
2022-10-13T08:26:29.048Z,55.60
2022-10-13T08:27:49.796Z,54.92
2022-10-13T08:30:16.049Z,54.88
2022-10-13T08:31:19.203Z,54.72
2022-10-13T08:32:23.108Z,54.82
2022-10-13T08:33:27.684Z,54.21
2022-10-13T08:34:29.929Z,54.36
2022-10-13T08:35:34.875Z,54.02
2022-10-13T08:36:38.018Z,54.07
2022-10-13T08:37:40.193Z,53.53
2022-10-13T08:38:43.451Z,53.62
2022-10-13T08:39:45.951Z,53.48
2022-10-13T08:40:50.053Z,53.13
2022-10-13T08:41:53.174Z,52.87
2022-10-13T08:42:59.494Z,52.89
2022-10-13T08:44:56.780Z,52.70
2022-10-13T08:45:46.678Z,52.51
2022-10-13T08:47:09.701Z,52.09
2022-10-13T08:48:18.305Z,51.82
2022-10-13T08:49:20.559Z,51.69
2022-10-13T08:50:25.488Z,51.32
2022-10-13T08:51:29.137Z,51.44
2022-10-13T08:52:57.535Z,51.37
2022-10-13T08:54:00.035Z,50.82
2022-10-13T08:55:02.501Z,50.38
2022-10-13T08:56:15.063Z,49.81
2022-10-13T08:57:18.786Z,49.96
2022-10-13T08:58:29.625Z,49.88
2022-10-13T08:59:31.878Z,49.91
2022-10-13T09:00:34.087Z,50.15
2022-10-13T09:01:37.169Z,49.78
2022-10-13T09:02:40.039Z,49.95
2022-10-13T09:03:50.494Z,49.38
2022-10-13T09:04:53.996Z,49.52
2022-10-13T09:06:34.977Z,49.36
2022-10-13T09:07:41.001Z,48.68
2022-10-13T09:08:50.151Z,48.22
2022-10-13T09:09:54.815Z,48.06
2022-10-13T09:11:00.029Z,48.07
2022-10-13T09:12:03.049Z,48.24
2022-10-13T09:13:05.695Z,48.14
2022-10-13T09:14:10.867Z,47.94
2022-10-13T09:15:13.208Z,47.87
2022-10-13T09:16:15.563Z,48.13
2022-10-13T09:17:19.686Z,47.66
2022-10-13T09:18:29.992Z,47.66
2022-10-13T09:19:36.402Z,47.75
2022-10-13T09:20:41.606Z,47.74
2022-10-13T09:21:43.861Z,47.57
2022-10-13T09:23:02.219Z,47.46
2022-10-13T09:24:13.428Z,47.21
2022-10-13T09:25:15.568Z,47.25
2022-10-13T09:26:24.053Z,47.07
2022-10-13T09:27:26.334Z,47.22
2022-10-13T09:28:30.430Z,46.70
2022-10-13T09:29:33.108Z,46.80
2022-10-13T09:30:41.673Z,46.84
2022-10-13T09:31:43.943Z,46.38
2022-10-13T09:32:46.211Z,46.67
2022-10-13T09:33:58.920Z,46.66
2022-10-13T09:35:20.674Z,46.63
2022-10-13T09:36:22.890Z,45.89
2022-10-13T09:37:26.287Z,45.95
2022-10-13T09:38:30.278Z,46.17
2022-10-13T09:39:33.703Z,45.57
2022-10-13T09:40:37.740Z,45.31
2022-10-13T09:41:41.499Z,45.36
2022-10-13T09:42:54.206Z,45.40
2022-10-13T09:43:56.413Z,45.63
2022-10-13T09:45:13.444Z,45.51
2022-10-13T09:46:25.736Z,45.38
2022-10-13T09:47:30.232Z,44.84
2022-10-13T09:48:37.204Z,45.27
2022-10-13T09:49:44.241Z,45.36
2022-10-13T09:50:52.100Z,45.29
2022-10-13T09:52:00.826Z,44.81
2022-10-13T09:53:29.971Z,45.31
2022-10-13T09:54:35.564Z,44.82
2022-10-13T09:55:37.863Z,44.90
2022-10-13T09:56:51.949Z,45.23
2022-10-13T09:58:03.361Z,44.92
2022-10-13T09:59:27.887Z,45.37
2022-10-13T10:00:32.480Z,44.91
2022-10-13T10:01:39.755Z,44.69
2022-10-13T10:02:54.156Z,44.88
2022-10-13T10:03:57.869Z,44.50
2022-10-13T10:05:18.373Z,44.62
2022-10-13T10:06:26.870Z,44.63
2022-10-13T10:07:33.147Z,44.58
2022-10-13T10:09:02.845Z,44.55
2022-10-13T10:10:18.945Z,44.16
2022-10-13T10:11:41.614Z,44.11
2022-10-13T10:12:44.543Z,43.98
2022-10-13T10:13:49.807Z,43.87
2022-10-13T10:14:52.039Z,43.61
2022-10-13T10:16:02.800Z,43.90
2022-10-13T10:17:30.331Z,44.46
2022-10-13T10:18:46.031Z,44.22
2022-10-13T10:20:15.925Z,44.18
2022-10-13T10:21:55.331Z,44.59
2022-10-13T10:23:07.921Z,44.13
2022-10-13T10:24:28.752Z,44.61
2022-10-13T10:25:47.029Z,44.44
2022-10-13T10:27:18.070Z,45.07
2022-10-13T10:28:35.840Z,44.75
2022-10-13T10:30:01.956Z,44.71
2022-10-13T10:31:27.632Z,44.72
2022-10-13T10:32:55.784Z,45.05
2022-10-13T10:34:08.229Z,44.75
2022-10-13T10:35:15.987Z,44.58
2022-10-13T10:36:23.805Z,44.27
2022-10-13T10:37:35.014Z,44.53
2022-10-13T10:38:55.392Z,44.65
2022-10-13T10:40:23.831Z,44.33
2022-10-13T10:41:45.199Z,44.66
2022-10-13T10:42:58.072Z,44.79
2022-10-13T10:44:32.093Z,44.60
2022-10-13T10:45:39.015Z,44.51
2022-10-13T10:46:47.065Z,44.65
2022-10-13T10:47:54.106Z,44.85
2022-10-13T10:49:25.972Z,44.84
2022-10-13T10:50:30.941Z,44.57
2022-10-13T10:51:37.936Z,44.68
2022-10-13T10:53:05.330Z,44.82
2022-10-13T10:54:07.633Z,44.90
2022-10-13T10:55:38.051Z,44.78
2022-10-13T10:57:09.534Z,45.26
2022-10-13T10:58:37.489Z,44.82
2022-10-13T11:00:13.715Z,44.89
2022-10-13T11:01:24.929Z,44.81
2022-10-13T11:02:32.941Z,44.73
2022-10-13T11:03:54.411Z,44.69
2022-10-13T11:05:05.098Z,44.87
2022-10-13T11:06:17.967Z,45.18
2022-10-13T11:07:25.373Z,45.06
2022-10-13T11:08:42.531Z,45.06
2022-10-13T11:09:44.762Z,45.11
2022-10-13T11:10:47.016Z,45.10
2022-10-13T11:11:50.393Z,45.07
2022-10-13T11:12:54.869Z,45.13
2022-10-13T11:14:06.347Z,44.74
2022-10-13T11:15:14.111Z,44.86
2022-10-13T11:16:27.527Z,44.99
2022-10-13T11:17:38.066Z,44.72
2022-10-13T11:19:06.627Z,44.93
2022-10-13T11:20:21.102Z,44.86
2022-10-13T11:21:23.561Z,44.55
2022-10-13T11:22:31.137Z,44.77
2022-10-13T11:23:34.313Z,45.14
2022-10-13T11:24:38.790Z,44.98
2022-10-13T11:25:48.915Z,44.97
2022-10-13T11:26:51.359Z,45.55
2022-10-13T11:27:53.965Z,45.25
2022-10-13T11:28:56.273Z,45.03
2022-10-13T11:30:00.471Z,44.76
2022-10-13T11:31:05.405Z,44.92
2022-10-13T11:32:27.640Z,44.81
2022-10-13T11:33:32.928Z,44.31
2022-10-13T11:34:35.264Z,44.25
2022-10-13T11:35:38.882Z,44.05
2022-10-13T11:36:51.653Z,44.40
2022-10-13T11:38:07.671Z,44.29
2022-10-13T11:39:27.473Z,44.68
2022-10-13T11:40:35.246Z,44.67
2022-10-13T11:41:52.598Z,45.12
2022-10-13T11:43:23.718Z,45.03
2022-10-13T11:44:43.873Z,45.08
2022-10-13T11:46:15.977Z,45.04
2022-10-13T11:47:54.005Z,44.71
2022-10-13T11:49:08.662Z,44.67
2022-10-13T11:50:22.878Z,44.84
2022-10-13T11:51:34.233Z,45.26
2022-10-13T11:53:04.285Z,44.97
2022-10-13T11:54:31.706Z,44.93
2022-10-13T11:55:48.955Z,45.09
2022-10-13T11:56:57.504Z,44.79
2022-10-13T11:58:20.405Z,44.62
2022-10-13T11:59:28.510Z,44.55
2022-10-13T12:00:30.806Z,44.23
2022-10-13T12:01:33.102Z,44.85
2022-10-13T12:02:35.452Z,45.13
2022-10-13T12:03:40.735Z,45.08
2022-10-13T12:05:05.305Z,45.16
2022-10-13T12:06:37.046Z,45.21
2022-10-13T12:07:41.769Z,45.08
2022-10-13T12:08:49.903Z,45.23
2022-10-13T12:09:54.756Z,45.01
2022-10-13T12:11:00.100Z,45.30
2022-10-13T12:12:17.934Z,45.11
2022-10-13T12:13:26.780Z,44.52
2022-10-13T12:14:53.695Z,44.97
2022-10-13T12:16:15.617Z,44.72
2022-10-13T12:17:31.599Z,44.68
2022-10-13T12:18:38.429Z,44.75
2022-10-13T12:19:40.768Z,44.97
2022-10-13T12:20:42.952Z,44.83
2022-10-13T12:21:53.606Z,44.80
2022-10-13T12:22:56.640Z,45.15
2022-10-13T12:24:11.718Z,44.65
2022-10-13T12:25:23.767Z,44.25
2022-10-13T12:26:28.784Z,44.75
2022-10-13T12:27:45.226Z,44.86
2022-10-13T12:28:56.803Z,44.94
2022-10-13T12:30:00.777Z,44.71
2022-10-13T12:31:03.343Z,45.03
2022-10-13T12:32:19.169Z,45.12
2022-10-13T12:33:32.366Z,45.00
2022-10-13T12:34:36.500Z,45.16
2022-10-13T12:35:39.072Z,45.23
2022-10-13T12:36:45.558Z,44.94
2022-10-13T12:37:48.845Z,44.90
2022-10-13T12:38:54.110Z,44.89
2022-10-13T12:39:58.173Z,44.88
2022-10-13T12:41:00.527Z,44.73
2022-10-13T12:42:04.054Z,45.06
2022-10-13T12:43:07.020Z,45.01
2022-10-13T12:44:15.388Z,45.08
2022-10-13T12:45:21.613Z,44.82
2022-10-13T12:46:47.505Z,44.80
2022-10-13T12:47:55.177Z,44.73
2022-10-13T12:49:10.406Z,44.95
2022-10-13T12:50:28.237Z,44.70
2022-10-13T12:51:31.716Z,45.00
2022-10-13T12:52:34.884Z,44.81
2022-10-13T12:53:39.472Z,44.89
2022-10-13T12:54:56.273Z,45.15
2022-10-13T12:56:00.828Z,44.71
2022-10-13T12:57:36.167Z,44.85
2022-10-13T12:58:43.471Z,44.64
2022-10-13T12:59:46.263Z,44.62
2022-10-13T13:01:19.974Z,44.38
2022-10-13T13:02:26.242Z,44.42
2022-10-13T13:03:29.895Z,44.67
2022-10-13T13:04:37.763Z,44.32
2022-10-13T13:05:50.864Z,44.43
2022-10-13T13:07:03.217Z,44.57
2022-10-13T13:08:27.179Z,44.17
2022-10-13T13:09:39.044Z,44.41
2022-10-13T13:10:54.442Z,44.52
2022-10-13T13:12:08.831Z,44.73
2022-10-13T13:13:15.189Z,44.61
2022-10-13T13:14:43.601Z,44.43
2022-10-13T13:15:45.790Z,44.83
2022-10-13T13:17:09.429Z,44.83
2022-10-13T13:18:26.966Z,44.57
2022-10-13T13:19:39.493Z,44.80
2022-10-13T13:20:45.770Z,44.60
2022-10-13T13:21:48.064Z,44.74
2022-10-13T13:22:50.998Z,44.80
2022-10-13T13:23:55.850Z,44.48
2022-10-13T13:24:58.223Z,44.49
2022-10-13T13:26:06.610Z,44.58
2022-10-13T13:27:20.339Z,44.53
2022-10-13T13:28:22.717Z,44.63
2022-10-13T13:29:25.022Z,44.72
2022-10-13T13:30:27.303Z,44.81
2022-10-13T13:31:29.729Z,44.47
2022-10-13T13:32:32.017Z,44.69
2022-10-13T13:33:34.222Z,44.36
2022-10-13T13:34:37.080Z,44.37
2022-10-13T13:35:39.320Z,44.56
2022-10-13T13:36:41.820Z,44.64
2022-10-13T13:37:49.965Z,44.25
2022-10-13T13:38:53.889Z,44.45
2022-10-13T13:39:57.173Z,44.57
2022-10-13T13:41:03.107Z,44.44
2022-10-13T13:42:08.770Z,44.24
2022-10-13T13:43:11.740Z,44.05
2022-10-13T13:44:13.973Z,44.31
2022-10-13T13:45:20.742Z,44.17
2022-10-13T13:46:27.895Z,44.36
2022-10-13T13:47:30.118Z,44.37
2022-10-13T13:48:32.907Z,44.16
2022-10-13T13:49:37.815Z,44.16
2022-10-13T13:50:40.555Z,44.44
2022-10-13T13:51:42.742Z,44.12
2022-10-13T13:52:45.071Z,44.16
2022-10-13T13:53:49.237Z,44.47
2022-10-13T13:54:53.217Z,44.59
2022-10-13T13:55:55.714Z,44.44
2022-10-13T13:56:58.938Z,44.16
2022-10-13T13:58:10.025Z,44.43
2022-10-13T13:59:12.205Z,44.84
2022-10-13T14:00:16.212Z,45.03
2022-10-13T14:01:24.225Z,45.21
2022-10-13T14:02:26.554Z,45.20
2022-10-13T14:03:28.778Z,45.23
2022-10-13T14:04:30.957Z,45.44
2022-10-13T14:05:33.252Z,45.40
2022-10-13T14:06:35.614Z,45.49
2022-10-13T14:07:38.902Z,45.22
2022-10-13T14:08:43.021Z,45.45
2022-10-13T14:09:46.113Z,45.35
2022-10-13T14:10:49.070Z,45.11
2022-10-13T14:11:53.404Z,44.93
2022-10-13T14:12:55.683Z,45.25
2022-10-13T14:14:02.007Z,44.95
2022-10-13T14:15:05.201Z,45.20
2022-10-13T14:16:07.857Z,45.19
2022-10-13T14:17:10.069Z,45.33
2022-10-13T14:18:13.584Z,45.56
2022-10-13T14:19:15.860Z,45.39
2022-10-13T14:20:18.339Z,45.08
2022-10-13T14:21:23.078Z,45.13
2022-10-13T14:22:25.790Z,45.49
2022-10-13T14:23:28.826Z,45.22
2022-10-13T14:24:31.092Z,45.37
2022-10-13T14:25:38.601Z,45.09
2022-10-13T14:26:41.974Z,45.11